createdAt,value
2018-12-25T00:01:48.093Z,10.57
2018-12-25T00:04:16.991Z,5.70
2018-12-25T00:06:47.797Z,7.60
2018-12-25T00:09:16.561Z,6.70
2018-12-25T00:11:45.425Z,4.83
2018-12-25T00:14:14.993Z,7.10
2018-12-25T00:16:44.030Z,6.35
2018-12-25T00:19:12.842Z,5.93
2018-12-25T00:21:41.655Z,5.30
2018-12-25T00:24:10.463Z,6.90
2018-12-25T00:26:39.255Z,6.30
2018-12-25T00:29:08.109Z,7.50
2018-12-25T00:31:36.931Z,8.17
2018-12-25T00:34:05.843Z,7.00
2018-12-25T00:36:34.658Z,8.97
2018-12-25T00:39:04.625Z,5.83
2018-12-25T00:41:33.433Z,6.87
2018-12-25T00:44:02.284Z,6.33
2018-12-25T00:46:31.089Z,14.00
2018-12-25T00:49:00.053Z,8.65
2018-12-25T00:51:28.890Z,7.58
2018-12-25T00:53:57.688Z,8.60
2018-12-25T00:56:26.599Z,5.83
2018-12-25T00:58:55.403Z,8.60
2018-12-25T01:01:24.345Z,7.75
2018-12-25T01:03:53.316Z,11.70
2018-12-25T01:06:22.172Z,10.03
2018-12-25T01:08:50.995Z,12.15
2018-12-25T01:11:20.045Z,9.27
2018-12-25T01:13:48.874Z,9.97
2018-12-25T01:16:17.745Z,10.55
2018-12-25T01:18:46.887Z,5.60
2018-12-25T01:21:15.774Z,7.57
2018-12-25T01:23:44.573Z,11.27
2018-12-25T01:26:13.395Z,6.37
2018-12-25T01:28:42.273Z,8.80
2018-12-25T01:31:11.102Z,7.53
2018-12-25T01:33:39.925Z,14.63
2018-12-25T01:36:08.741Z,11.80
2018-12-25T01:38:37.557Z,10.10
2018-12-25T01:41:06.452Z,11.17
2018-12-25T01:43:35.331Z,12.80
2018-12-25T01:46:04.223Z,13.23
2018-12-25T01:48:33.093Z,9.00
2018-12-25T01:51:01.913Z,13.40
2018-12-25T01:53:30.804Z,12.10
2018-12-25T01:55:59.620Z,9.23
2018-12-25T01:58:28.558Z,11.20
2018-12-25T02:00:57.511Z,13.67
2018-12-25T02:03:26.441Z,10.10
2018-12-25T02:05:55.272Z,10.67
2018-12-25T02:08:24.162Z,14.53
2018-12-25T02:10:52.980Z,11.60
2018-12-25T02:13:21.939Z,16.80
2018-12-25T02:15:50.757Z,10.78
2018-12-25T02:18:19.562Z,13.77
2018-12-25T02:20:49.169Z,15.93
2018-12-25T02:23:17.986Z,13.35
2018-12-25T02:25:46.837Z,13.57
2018-12-25T02:28:15.702Z,11.50
2018-12-25T02:30:44.529Z,16.33
2018-12-25T02:33:13.423Z,12.00
2018-12-25T02:35:42.442Z,12.07
2018-12-25T02:38:11.337Z,12.03
2018-12-25T02:40:40.152Z,7.70
2018-12-25T02:43:08.951Z,11.00
2018-12-25T02:45:37.838Z,9.08
2018-12-25T02:48:06.717Z,11.03
2018-12-25T02:50:35.598Z,9.80
2018-12-25T02:53:04.402Z,9.57
2018-12-25T02:55:33.342Z,9.10
2018-12-25T02:58:02.158Z,9.70
2018-12-25T03:00:31.034Z,8.10
2018-12-25T03:02:59.942Z,9.87
2018-12-25T03:05:28.968Z,10.37
2018-12-25T03:07:57.788Z,10.17
2018-12-25T03:10:26.588Z,8.90
2018-12-25T03:12:55.488Z,9.80
2018-12-25T03:15:24.278Z,10.10
2018-12-25T03:17:53.122Z,13.43
2018-12-25T03:20:22.004Z,9.70
2018-12-25T03:22:51.408Z,8.65
2018-12-25T03:25:20.301Z,8.50
2018-12-25T03:27:49.150Z,10.10
2018-12-25T03:30:17.958Z,9.53
2018-12-25T03:32:46.852Z,6.47
2018-12-25T03:35:15.736Z,9.93
2018-12-25T03:37:44.570Z,9.37
2018-12-25T03:40:13.450Z,13.63
2018-12-25T03:42:42.283Z,7.43
2018-12-25T03:45:11.070Z,9.38
2018-12-25T03:47:39.884Z,7.97
2018-12-25T03:50:10.951Z,11.00
2018-12-25T03:52:39.630Z,9.03
2018-12-25T03:55:08.436Z,9.30
2018-12-25T03:57:37.424Z,11.00
2018-12-25T04:00:06.800Z,6.67
2018-12-25T04:02:35.732Z,10.13
2018-12-25T04:05:04.869Z,9.63
2018-12-25T04:07:33.701Z,11.90
2018-12-25T04:10:02.596Z,10.73
2018-12-25T04:12:31.409Z,7.97
2018-12-25T04:15:00.361Z,8.33
2018-12-25T04:17:29.395Z,9.05
2018-12-25T04:19:58.268Z,7.67
2018-12-25T04:22:27.246Z,8.97
2018-12-25T04:24:56.037Z,8.40
2018-12-25T04:27:24.855Z,11.33
2018-12-25T04:29:53.894Z,9.40
2018-12-25T04:32:22.783Z,10.75
2018-12-25T04:34:51.588Z,8.03
2018-12-25T04:37:20.438Z,9.43
2018-12-25T04:39:49.251Z,9.30
2018-12-25T04:42:18.082Z,11.68
2018-12-25T04:44:46.991Z,41.83
2018-12-25T04:47:15.815Z,26.90
2018-12-25T04:49:44.685Z,34.57
2018-12-25T04:52:13.445Z,37.67
2018-12-25T04:54:42.349Z,23.07
2018-12-25T04:57:11.155Z,13.13
2018-12-25T04:59:39.997Z,32.43
2018-12-25T05:02:08.939Z,35.83
2018-12-25T05:04:37.772Z,31.53
2018-12-25T05:07:06.682Z,21.63
2018-12-25T05:09:35.497Z,29.83
2018-12-25T05:12:04.392Z,50.70
2018-12-25T05:14:33.208Z,20.60
2018-12-25T05:17:02.000Z,10.80
2018-12-25T05:19:30.824Z,12.63
2018-12-25T05:21:59.635Z,18.73
2018-12-25T05:24:28.510Z,21.30
2018-12-25T05:26:57.311Z,16.17
2018-12-25T05:29:26.145Z,12.17
2018-12-25T05:31:55.025Z,18.27
2018-12-25T05:34:23.864Z,25.13
2018-12-25T05:36:52.744Z,9.23
2018-12-25T05:39:21.607Z,14.37
2018-12-25T05:41:50.425Z,13.43
2018-12-25T05:44:19.261Z,18.80
2018-12-25T05:46:48.142Z,19.13
2018-12-25T05:49:16.957Z,15.57
2018-12-25T05:51:45.767Z,12.53
2018-12-25T05:54:14.601Z,14.90
2018-12-25T05:56:43.398Z,21.47
2018-12-25T05:59:12.281Z,20.80
2018-12-25T06:01:41.108Z,19.70
2018-12-25T06:04:10.074Z,13.00
2018-12-25T06:06:39.004Z,27.03
2018-12-25T06:09:08.093Z,18.40
2018-12-25T06:11:36.917Z,27.47
2018-12-25T06:14:05.722Z,20.47
2018-12-25T06:16:34.539Z,15.90
2018-12-25T06:19:03.370Z,20.50
2018-12-25T06:21:32.358Z,20.30
2018-12-25T06:24:01.172Z,13.63
2018-12-25T06:26:30.078Z,18.37
2018-12-25T06:28:58.913Z,22.53
2018-12-25T06:31:28.445Z,15.43
2018-12-25T06:33:57.232Z,20.90
2018-12-25T06:36:26.139Z,11.50
2018-12-25T06:38:55.013Z,14.10
2018-12-25T06:41:23.820Z,10.90
2018-12-25T06:43:52.791Z,9.90
2018-12-25T06:46:21.681Z,17.13
2018-12-25T06:48:50.615Z,15.50
2018-12-25T06:51:19.438Z,48.87
2018-12-25T06:53:48.312Z,50.93
2018-12-25T06:56:17.151Z,46.83
2018-12-25T06:58:45.954Z,15.33
2018-12-25T07:01:14.791Z,25.53
2018-12-25T07:03:43.660Z,23.75
2018-12-25T07:06:12.631Z,28.53
2018-12-25T07:08:41.435Z,47.23
2018-12-25T07:11:10.261Z,16.50
2018-12-25T07:13:39.273Z,21.17
2018-12-25T07:16:08.095Z,17.45
2018-12-25T07:18:37.199Z,12.63
2018-12-25T07:21:12.161Z,18.67
2018-12-25T07:23:36.562Z,22.73
2018-12-25T07:26:05.445Z,18.33
2018-12-25T07:28:34.243Z,6.77
2018-12-25T07:31:03.124Z,13.10
2018-12-25T07:33:32.017Z,19.17
2018-12-25T07:36:01.258Z,27.10
2018-12-25T07:38:30.238Z,11.73
2018-12-25T07:40:59.054Z,12.37
2018-12-25T07:43:27.861Z,26.57
2018-12-25T07:45:56.683Z,10.17
2018-12-25T07:48:25.498Z,25.72
2018-12-25T07:50:54.617Z,9.60
2018-12-25T07:53:23.586Z,11.10
2018-12-25T07:55:52.419Z,11.87
2018-12-25T07:58:21.222Z,8.50
2018-12-25T08:00:50.106Z,9.38
2018-12-25T08:03:18.921Z,16.00
2018-12-25T08:05:47.783Z,14.07
2018-12-25T08:08:16.601Z,40.07
2018-12-25T08:10:45.550Z,24.18
2018-12-25T08:13:14.562Z,24.10
2018-12-25T08:15:43.366Z,29.30
2018-12-25T08:18:12.193Z,19.00
2018-12-25T08:20:40.998Z,15.43
2018-12-25T08:23:09.892Z,26.00
2018-12-25T08:25:38.793Z,13.57
2018-12-25T08:28:07.634Z,18.13
2018-12-25T08:30:36.517Z,15.40
2018-12-25T08:33:05.400Z,32.45
2018-12-25T08:35:34.244Z,10.30
2018-12-25T08:38:03.967Z,13.05
2018-12-25T08:40:32.779Z,8.25
2018-12-25T08:43:01.679Z,15.87
2018-12-25T08:45:30.555Z,18.73
2018-12-25T08:47:59.738Z,18.13
2018-12-25T08:50:28.649Z,26.30
2018-12-25T08:52:57.535Z,10.67
2018-12-25T08:55:26.341Z,11.12
2018-12-25T08:57:55.199Z,19.33
2018-12-25T09:00:24.340Z,12.53
2018-12-25T09:02:53.178Z,12.60
2018-12-25T09:05:21.980Z,15.20
2018-12-25T09:07:50.807Z,19.70
2018-12-25T09:10:19.615Z,18.57
2018-12-25T09:12:48.446Z,20.60
2018-12-25T09:15:17.273Z,35.63
2018-12-25T09:17:46.186Z,31.70
2018-12-25T09:20:15.178Z,23.77
2018-12-25T09:22:43.991Z,22.93
2018-12-25T09:25:12.801Z,31.68
2018-12-25T09:27:41.656Z,25.73
2018-12-25T09:30:10.633Z,47.77
2018-12-25T09:32:39.512Z,16.90
2018-12-25T09:35:08.414Z,20.53
2018-12-25T09:37:37.333Z,17.43
2018-12-25T09:40:07.319Z,21.97
2018-12-25T09:42:36.802Z,24.57
2018-12-25T09:45:06.039Z,29.77
2018-12-25T09:47:34.853Z,24.98
2018-12-25T09:50:03.747Z,25.90
2018-12-25T09:52:32.554Z,27.50
2018-12-25T09:55:01.463Z,25.90
2018-12-25T09:57:30.336Z,31.65
2018-12-25T09:59:59.189Z,27.07
2018-12-25T10:02:28.030Z,38.57
2018-12-25T10:04:56.858Z,22.30
2018-12-25T10:07:25.670Z,21.62
2018-12-25T10:09:54.506Z,28.47
2018-12-25T10:12:23.342Z,54.00
2018-12-25T10:14:52.166Z,24.87
2018-12-25T10:17:20.988Z,27.00
2018-12-25T10:19:49.889Z,38.20
2018-12-25T10:22:18.715Z,30.20
2018-12-25T10:24:47.603Z,30.03
2018-12-25T10:27:16.501Z,30.13
2018-12-25T10:29:45.495Z,31.90
2018-12-25T10:32:14.317Z,37.93
2018-12-25T10:34:43.151Z,23.07
2018-12-25T10:37:12.000Z,27.80
2018-12-25T10:39:40.937Z,31.17
2018-12-25T10:42:09.781Z,25.80
2018-12-25T10:44:38.682Z,18.57
2018-12-25T10:47:07.576Z,25.20
2018-12-25T10:49:36.497Z,51.43
2018-12-25T10:52:11.624Z,40.10
2018-12-25T10:54:36.050Z,28.40
2018-12-25T10:57:04.930Z,23.90
2018-12-25T10:59:33.822Z,24.20
2018-12-25T11:02:02.658Z,28.60
2018-12-25T11:04:32.575Z,25.87
2018-12-25T11:07:01.499Z,34.57
2018-12-25T11:09:30.412Z,27.23
2018-12-25T11:11:59.308Z,26.97
2018-12-25T11:14:28.119Z,20.40
2018-12-25T11:16:57.092Z,29.50
2018-12-25T11:19:25.976Z,30.63
2018-12-25T11:21:54.799Z,20.57
2018-12-25T11:24:23.614Z,25.13
2018-12-25T11:26:52.428Z,31.70
2018-12-25T11:29:21.235Z,30.37
2018-12-25T11:31:50.215Z,30.57
2018-12-25T11:34:19.035Z,32.10
2018-12-25T11:36:47.864Z,36.90
2018-12-25T11:39:16.860Z,27.82
2018-12-25T11:41:45.709Z,20.77
2018-12-25T11:44:14.529Z,28.43
2018-12-25T11:46:43.431Z,27.63
2018-12-25T11:49:12.367Z,23.00
2018-12-25T11:51:41.258Z,21.80
2018-12-25T11:54:10.345Z,27.50
2018-12-25T11:56:39.148Z,28.00
2018-12-25T11:59:08.034Z,27.10
2018-12-25T12:01:36.936Z,26.27
2018-12-25T12:04:05.744Z,21.70
2018-12-25T12:06:34.571Z,19.37
2018-12-25T12:09:04.633Z,31.00
2018-12-25T12:11:33.462Z,30.27
2018-12-25T12:14:02.371Z,23.37
2018-12-25T12:16:31.184Z,33.33
2018-12-25T12:18:59.986Z,25.83
2018-12-25T12:21:28.826Z,25.17
2018-12-25T12:23:57.647Z,32.17
2018-12-25T12:26:26.624Z,23.13
2018-12-25T12:28:55.514Z,29.47
2018-12-25T12:31:24.342Z,26.33
2018-12-25T12:33:53.174Z,32.10
2018-12-25T12:36:21.984Z,29.63
2018-12-25T12:38:50.816Z,28.17
2018-12-25T12:41:19.615Z,20.97
2018-12-25T12:43:48.517Z,24.37
2018-12-25T12:46:17.526Z,25.87
2018-12-25T12:48:46.340Z,29.87
2018-12-25T12:51:15.240Z,25.70
2018-12-25T12:53:44.160Z,19.90
2018-12-25T12:56:13.003Z,24.50
2018-12-25T12:58:42.061Z,24.87
2018-12-25T13:01:10.942Z,23.22
2018-12-25T13:03:39.779Z,31.77
2018-12-25T13:06:08.603Z,28.73
2018-12-25T13:08:37.438Z,26.90
2018-12-25T13:11:06.240Z,22.33
2018-12-25T13:13:35.354Z,30.67
2018-12-25T13:16:04.271Z,28.98
2018-12-25T13:18:33.151Z,24.47
2018-12-25T13:21:02.009Z,23.73
2018-12-25T13:23:30.858Z,23.20
2018-12-25T13:25:59.794Z,21.17
2018-12-25T13:28:28.706Z,18.37
2018-12-25T13:30:57.579Z,17.62
2018-12-25T13:33:26.392Z,13.43
2018-12-25T13:35:55.229Z,13.73
2018-12-25T13:38:24.057Z,13.27
2018-12-25T13:40:52.947Z,13.80
2018-12-25T13:43:21.808Z,12.80
2018-12-25T13:45:50.623Z,15.90
2018-12-25T13:48:19.460Z,11.67
2018-12-25T13:50:48.256Z,13.60
2018-12-25T13:53:17.124Z,10.03
2018-12-25T13:55:46.036Z,11.53
2018-12-25T13:58:14.847Z,9.23
2018-12-25T14:00:43.862Z,14.20
2018-12-25T14:03:12.731Z,12.53
2018-12-25T14:05:41.573Z,10.68
2018-12-25T14:08:10.461Z,7.87
2018-12-25T14:10:39.349Z,10.30
2018-12-25T14:13:08.225Z,7.33
2018-12-25T14:15:37.047Z,9.50
2018-12-25T14:18:05.852Z,7.83
2018-12-25T14:20:34.803Z,6.73
2018-12-25T14:23:11.000Z,8.27
2018-12-25T14:25:34.513Z,9.43
2018-12-25T14:28:03.419Z,7.33
2018-12-25T14:30:32.233Z,4.60
2018-12-25T14:33:01.091Z,12.93
2018-12-25T14:35:29.977Z,9.87
2018-12-25T14:37:58.861Z,9.37
2018-12-25T14:40:27.709Z,8.10
2018-12-25T14:42:56.584Z,5.67
2018-12-25T14:45:25.977Z,11.27
2018-12-25T14:47:55.266Z,10.30
2018-12-25T14:50:24.449Z,11.20
2018-12-25T14:52:53.331Z,9.00
2018-12-25T14:55:22.216Z,9.00
2018-12-25T14:57:51.024Z,7.73
2018-12-25T15:00:19.928Z,10.27
2018-12-25T15:02:48.771Z,9.43
2018-12-25T15:05:17.679Z,7.70
2018-12-25T15:07:46.486Z,8.85
2018-12-25T15:10:15.701Z,14.43
2018-12-25T15:12:44.525Z,9.65
2018-12-25T15:15:13.397Z,9.60
2018-12-25T15:17:42.188Z,9.80
2018-12-25T15:20:11.011Z,9.30
2018-12-25T15:22:40.731Z,10.40
2018-12-25T15:25:09.646Z,13.60
2018-12-25T15:27:38.523Z,9.03
2018-12-25T15:30:07.864Z,8.83
2018-12-25T15:32:36.664Z,6.43
2018-12-25T15:35:09.008Z,11.40
2018-12-25T15:37:37.815Z,12.63
2018-12-25T15:40:08.147Z,5.80
2018-12-25T15:42:37.056Z,11.40
2018-12-25T15:45:07.180Z,10.77
2018-12-25T15:47:36.053Z,7.60
2018-12-25T15:50:05.817Z,11.00
2018-12-25T15:52:34.717Z,12.53
2018-12-25T15:55:03.681Z,12.63
2018-12-25T15:57:32.567Z,9.60
2018-12-25T16:00:01.412Z,9.40
2018-12-25T16:02:30.486Z,12.82
2018-12-25T16:04:59.447Z,12.80
2018-12-25T16:07:28.261Z,12.43
2018-12-25T16:09:57.087Z,14.93
2018-12-25T16:12:25.917Z,11.70
2018-12-25T16:14:54.717Z,9.10
2018-12-25T16:17:23.536Z,12.97
2018-12-25T16:19:52.339Z,14.17
2018-12-25T16:22:21.251Z,18.93
2018-12-25T16:24:50.133Z,18.77
2018-12-25T16:27:19.033Z,11.27
2018-12-25T16:29:48.407Z,15.72
2018-12-25T16:32:17.226Z,12.25
2018-12-25T16:34:46.048Z,16.27
2018-12-25T16:37:14.995Z,14.70
2018-12-25T16:39:43.777Z,14.70
2018-12-25T16:42:12.747Z,14.37
2018-12-25T16:44:41.568Z,10.90
2018-12-25T16:47:10.401Z,12.00
2018-12-25T16:49:39.210Z,12.93
2018-12-25T16:52:08.027Z,12.80
2018-12-25T16:54:36.922Z,12.73
2018-12-25T16:57:05.736Z,14.07
2018-12-25T16:59:34.558Z,16.17
2018-12-25T17:02:03.467Z,16.30
2018-12-25T17:04:32.341Z,15.15
2018-12-25T17:07:01.238Z,12.13
2018-12-25T17:09:30.421Z,15.83
2018-12-25T17:11:59.504Z,11.53
2018-12-25T17:14:28.555Z,13.63
2018-12-25T17:16:57.562Z,11.13
2018-12-25T17:19:26.437Z,19.70
2018-12-25T17:21:55.266Z,17.93
2018-12-25T17:24:24.079Z,16.50
2018-12-25T17:26:52.909Z,21.10
2018-12-25T17:29:21.718Z,17.13
2018-12-25T17:31:50.544Z,11.97
2018-12-25T17:34:19.359Z,16.97
2018-12-25T17:36:48.250Z,18.00
2018-12-25T17:39:17.064Z,18.13
2018-12-25T17:41:45.906Z,18.33
2018-12-25T17:44:14.796Z,11.70
2018-12-25T17:46:43.634Z,17.57
2018-12-25T17:49:12.480Z,13.73
2018-12-25T17:51:41.340Z,14.30
2018-12-25T17:54:10.900Z,16.07
2018-12-25T17:56:40.078Z,17.63
2018-12-25T17:59:09.026Z,17.73
2018-12-25T18:01:37.841Z,22.27
2018-12-25T18:04:06.818Z,19.27
2018-12-25T18:06:35.651Z,18.33
2018-12-25T18:09:05.896Z,18.33
2018-12-25T18:11:34.926Z,19.67
2018-12-25T18:14:04.019Z,16.47
2018-12-25T18:16:32.825Z,18.90
2018-12-25T18:19:01.637Z,14.77
2018-12-25T18:21:30.674Z,19.60
2018-12-25T18:23:59.599Z,17.53
2018-12-25T18:26:28.602Z,18.43
2018-12-25T18:28:57.487Z,16.87
2018-12-25T18:31:26.294Z,21.67
2018-12-25T18:33:55.154Z,20.07
2018-12-25T18:36:24.037Z,18.80
2018-12-25T18:38:52.895Z,20.80
2018-12-25T18:41:21.722Z,21.42
2018-12-25T18:43:50.683Z,21.00
2018-12-25T18:46:19.567Z,20.53
2018-12-25T18:48:48.534Z,17.80
2018-12-25T18:51:17.353Z,18.37
2018-12-25T18:53:46.275Z,22.87
2018-12-25T18:56:15.099Z,21.13
2018-12-25T18:58:43.937Z,19.37
2018-12-25T19:01:12.746Z,19.70
2018-12-25T19:03:41.577Z,22.40
2018-12-25T19:06:10.403Z,15.53
2018-12-25T19:08:39.426Z,21.97
2018-12-25T19:11:08.282Z,16.07
2018-12-25T19:13:37.174Z,19.02
2018-12-25T19:16:06.672Z,24.13
2018-12-25T19:18:35.564Z,17.12
2018-12-25T19:21:04.385Z,15.48
2018-12-25T19:23:33.508Z,31.87
2018-12-25T19:26:02.400Z,30.27
2018-12-25T19:28:31.440Z,27.37
2018-12-25T19:31:00.283Z,22.33
2018-12-25T19:33:29.152Z,34.53
2018-12-25T19:35:58.028Z,22.58
2018-12-25T19:38:26.948Z,24.73
2018-12-25T19:40:55.833Z,22.20
2018-12-25T19:43:25.565Z,22.42
2018-12-25T19:45:55.879Z,25.72
2018-12-25T19:48:25.661Z,23.00
2018-12-25T19:50:54.636Z,30.62
2018-12-25T19:53:23.536Z,17.43
2018-12-25T19:55:52.507Z,21.07
2018-12-25T19:58:21.487Z,23.80
2018-12-25T20:00:50.482Z,21.23
2018-12-25T20:03:24.352Z,30.60
2018-12-25T20:06:29.325Z,24.23
2018-12-25T20:09:34.442Z,22.75
2018-12-25T20:12:46.105Z,38.75
2018-12-25T20:15:41.541Z,23.50
2018-12-25T20:18:58.831Z,26.43
2018-12-25T20:22:16.751Z,24.98
2018-12-25T20:25:08.959Z,24.53
2018-12-25T20:28:01.126Z,15.73
2018-12-25T20:30:58.350Z,22.27
2018-12-25T20:34:11.429Z,29.80
2018-12-25T20:37:32.319Z,24.43
2018-12-25T20:40:42.163Z,21.27
2018-12-25T20:43:55.043Z,25.33
2018-12-25T20:46:54.444Z,31.60
2018-12-25T20:50:09.957Z,18.97
2018-12-25T20:53:22.152Z,26.07
2018-12-25T20:56:18.629Z,25.50
2018-12-25T20:59:26.841Z,21.23
2018-12-25T21:02:27.517Z,20.70
2018-12-25T21:05:30.435Z,29.87
2018-12-25T21:08:48.507Z,33.47
2018-12-25T21:11:56.040Z,27.23
2018-12-25T21:15:17.576Z,24.63
2018-12-25T21:18:37.171Z,25.37
2018-12-25T21:21:57.566Z,20.82
2018-12-25T21:25:09.590Z,29.77
2018-12-25T21:27:32.445Z,17.60
2018-12-25T21:30:06.913Z,27.97
2018-12-25T21:32:39.103Z,16.80
2018-12-25T21:35:12.190Z,37.73
2018-12-25T21:37:41.373Z,26.70
2018-12-25T21:40:10.339Z,24.97
2018-12-25T21:42:39.437Z,30.57
2018-12-25T21:45:08.899Z,20.43
2018-12-25T21:47:37.902Z,25.27
2018-12-25T21:50:07.776Z,25.40
2018-12-25T21:52:36.749Z,26.67
2018-12-25T21:55:05.734Z,21.63
2018-12-25T21:57:35.613Z,29.23
2018-12-25T22:02:42.093Z,22.93
2018-12-25T22:05:11.456Z,28.30
2018-12-25T22:07:40.431Z,31.80
2018-12-25T22:10:09.672Z,30.80
2018-12-25T22:12:38.673Z,24.80
2018-12-25T22:15:09.078Z,28.40
2018-12-25T22:17:38.007Z,21.90
2018-12-25T22:20:26.453Z,28.63
2018-12-25T22:22:55.350Z,31.30
2018-12-25T22:25:27.323Z,22.83
2018-12-25T22:27:55.268Z,24.57
2018-12-25T22:30:24.157Z,29.03
2018-12-25T22:32:53.051Z,19.55
2018-12-25T22:35:22.159Z,25.07
2018-12-25T22:37:50.985Z,27.93
2018-12-25T22:40:19.877Z,25.17
2018-12-25T22:42:48.774Z,25.27
2018-12-25T22:45:17.660Z,15.43
2018-12-25T22:47:46.453Z,29.20
2018-12-25T22:50:15.432Z,13.48
2018-12-25T22:52:44.243Z,19.67
2018-12-25T22:55:13.360Z,24.17
2018-12-25T22:57:42.173Z,19.77
2018-12-25T23:00:13.188Z,12.93
2018-12-25T23:02:42.307Z,25.23
2018-12-25T23:05:11.147Z,24.83
2018-12-25T23:07:39.995Z,20.80
2018-12-25T23:10:09.505Z,20.90
2018-12-25T23:12:38.492Z,24.00
2018-12-25T23:15:08.662Z,19.70
2018-12-25T23:17:37.785Z,19.37
2018-12-25T23:20:06.954Z,24.37
2018-12-25T23:22:35.878Z,15.00
2018-12-25T23:25:04.985Z,12.50
2018-12-25T23:27:34.476Z,17.00
2018-12-25T23:30:03.452Z,17.83
2018-12-25T23:32:32.262Z,15.43
2018-12-25T23:35:01.392Z,16.07
2018-12-25T23:37:30.228Z,18.70
2018-12-25T23:39:59.281Z,16.90
2018-12-25T23:42:28.142Z,18.43
2018-12-25T23:44:56.969Z,17.02
2018-12-25T23:47:25.855Z,14.55
2018-12-25T23:49:54.706Z,16.93
2018-12-25T23:52:23.527Z,17.10
2018-12-25T23:54:52.356Z,21.60
2018-12-25T23:57:21.579Z,12.97
2018-12-25T23:59:50.462Z,16.57
